Time,TemperatureF,DewpointF,PressureIn,WindDirection,WindDirectionDegrees,WindSpeedMPH,WindSpeedGustMPH,Humidity,HourlyPrecipIn,Conditions,Clouds,dailyrainin,SoftwareType,DateUTC
2013-09-24 00:14:00,54.4,48.0,29.99,SE,130,0.0,-999.0,79,-99.99,,,0.00,weatherlink.com 1.10,2013-09-24 05:14:00,
2013-09-24 00:29:00,54.3,48.0,29.99,ESE,118,0.0,-999.0,79,-99.99,,,0.00,weatherlink.com 1.10,2013-09-24 05:29:00,
2013-09-24 00:44:00,54.1,48.0,29.99,SE,124,0.0,-999.0,79,-99.99,,,0.00,weatherlink.com 1.10,2013-09-24 05:44:00,
2013-09-24 00:59:00,53.7,48.0,29.99,ENE,78,0.0,-999.0,80,-99.99,,,0.00,weatherlink.com 1.10,2013-09-24 05:59:00,
2013-09-24 01:14:00,53.3,48.0,29.99,ESE,116,0.0,-999.0,81,-99.99,,,0.00,weatherlink.com 1.10,2013-09-24 06:14:00,
2013-09-24 01:29:00,52.7,47.0,29.99,ESE,122,1.0,-999.0,82,-99.99,,,0.00,weatherlink.com 1.10,2013-09-24 06:29:00,
2013-09-24 01:44:00,52.3,47.0,29.99,ESE,115,0.0,-999.0,83,-99.99,,,0.00,weatherlink.com 1.10,2013-09-24 06:44:00,
2013-09-24 01:59:00,52.2,48.0,30.00,East,87,0.0,-999.0,84,-99.99,,,0.00,weatherlink.com 1.10,2013-09-24 06:59:00,
2013-09-24 02:14:00,52.2,48.0,29.99,ESE,113,0.0,-999.0,84,-99.99,,,0.00,weatherlink.com 1.10,2013-09-24 07:14:00,
2013-09-24 02:29:00,52.2,48.0,30.00,East,99,0.0,-999.0,84,-99.99,,,0.00,weatherlink.com 1.10,2013-09-24 07:29:00,
2013-09-24 02:44:00,51.9,47.0,30.00,ESE,113,0.0,-999.0,84,-99.99,,,0.00,weatherlink.com 1.10,2013-09-24 07:44:00,
2013-09-24 02:59:00,51.5,47.0,30.00,East,96,0.0,-999.0,85,-99.99,,,0.00,weatherlink.com 1.10,2013-09-24 07:59:00,
2013-09-24 03:15:00,51.1,47.0,30.00,East,100,0.0,-999.0,86,-99.99,,,0.00,weatherlink.com 1.10,2013-09-24 08:15:00,
2013-09-24 03:30:00,50.7,47.0,30.00,ESE,106,0.0,-999.0,86,-99.99,,,0.00,weatherlink.com 1.10,2013-09-24 08:30:00,
2013-09-24 03:45:00,50.4,47.0,30.00,ENE,75,0.0,-999.0,87,-99.99,,,0.00,weatherlink.com 1.10,2013-09-24 08:45:00,
2013-09-24 04:00:00,50.3,47.0,30.01,ESE,104,0.0,-999.0,87,-99.99,,,0.00,weatherlink.com 1.10,2013-09-24 09:00:00,
2013-09-24 04:15:00,50.1,47.0,30.01,SE,132,0.0,-999.0,88,-99.99,,,0.00,weatherlink.com 1.10,2013-09-24 09:15:00,
2013-09-24 04:30:00,49.7,46.0,30.00,ESE,117,0.0,-999.0,88,-99.99,,,0.00,weatherlink.com 1.10,2013-09-24 09:30:00,
2013-09-24 04:45:00,49.6,46.0,30.00,SE,124,0.0,-999.0,88,-99.99,,,0.00,weatherlink.com 1.10,2013-09-24 09:45:00,
2013-09-24 05:00:00,49.4,46.0,30.00,ESE,120,0.0,-999.0,88,-99.99,,,0.00,weatherlink.com 1.10,2013-09-24 10:00:00,
2013-09-24 05:15:00,49.3,46.0,30.00,ESE,117,2.0,-999.0,89,-99.99,,,0.00,weatherlink.com 1.10,2013-09-24 10:15:00,
2013-09-24 05:30:00,49.2,46.0,30.01,ESE,121,0.0,-999.0,89,-99.99,,,0.00,weatherlink.com 1.10,2013-09-24 10:30:00,
2013-09-24 05:45:00,49.1,46.0,30.01,SSE,163,2.0,-999.0,89,-99.99,,,0.00,weatherlink.com 1.10,2013-09-24 10:45:00,
2013-09-24 06:00:00,49.1,46.0,30.01,ESE,105,0.0,-999.0,89,-99.99,,,0.00,weatherlink.com 1.10,2013-09-24 11:00:00,
2013-09-24 06:15:00,49.0,46.0,30.00,ESE,109,0.0,-999.0,89,-99.99,,,0.00,weatherlink.com 1.10,2013-09-24 11:15:00,
2013-09-24 06:30:00,49.0,46.0,30.01,ESE,117,0.0,-999.0,89,-99.99,,,0.00,weatherlink.com 1.10,2013-09-24 11:30:00,
2013-09-24 06:45:00,48.9,46.0,30.01,ESE,117,0.0,-999.0,90,-99.99,,,0.00,weatherlink.com 1.10,2013-09-24 11:45:00,
2013-09-24 07:00:00,48.8,46.0,30.01,SE,124,0.0,-999.0,90,-99.99,,,0.00,weatherlink.com 1.10,2013-09-24 12:00:00,
2013-09-24 07:15:00,48.9,46.0,30.01,ESE,121,0.0,-999.0,90,-99.99,,,0.00,weatherlink.com 1.10,2013-09-24 12:15:00,
2013-09-24 07:30:00,49.5,47.0,30.01,East,98,0.0,-999.0,90,-99.99,,,0.00,weatherlink.com 1.10,2013-09-24 12:30:00,
2013-09-24 08:00:00,51.5,48.0,30.01,SE,138,1.0,-999.0,88,-99.99,,,0.00,weatherlink.com 1.10,2013-09-24 13:00:00,
2013-09-24 08:15:00,52.6,49.0,30.00,ESE,103,0.0,-999.0,87,-99.99,,,0.00,weatherlink.com 1.10,2013-09-24 13:15:00,
2013-09-24 08:30:00,53.8,49.0,30.00,ESE,116,0.0,-999.0,85,-99.99,,,0.00,weatherlink.com 1.10,2013-09-24 13:30:00,
2013-09-24 08:45:00,55.1,50.0,29.99,ESE,121,1.0,-999.0,83,-99.99,,,0.00,weatherlink.com 1.10,2013-09-24 13:45:00,
2013-09-24 09:00:00,56.6,51.0,29.99,SE,144,5.0,-999.0,80,-99.99,,,0.00,weatherlink.com 1.10,2013-09-24 14:00:00,
2013-09-24 09:15:00,57.1,51.0,29.99,SE,126,5.0,-999.0,79,-99.99,,,0.00,weatherlink.com 1.10,2013-09-24 14:15:00,
2013-09-24 09:30:00,58.3,51.0,29.99,SE,146,6.0,-999.0,78,-99.99,,,0.00,weatherlink.com 1.10,2013-09-24 14:30:00,
2013-09-24 09:45:00,59.5,52.0,29.99,SE,124,0.0,-999.0,77,-99.99,,,0.00,weatherlink.com 1.10,2013-09-24 14:45:00,
2013-09-24 10:00:00,61.0,53.0,29.98,SSE,155,9.0,-999.0,74,-99.99,,,0.00,weatherlink.com 1.10,2013-09-24 15:00:00,
2013-09-24 10:15:00,62.5,53.0,29.98,SE,138,0.0,-999.0,71,-99.99,,,0.00,weatherlink.com 1.10,2013-09-24 15:15:00,
2013-09-24 10:30:00,63.6,53.0,29.97,SE,136,4.0,-999.0,69,-99.99,,,0.00,weatherlink.com 1.10,2013-09-24 15:30:00,
2013-09-24 10:45:00,64.8,54.0,29.97,ESE,102,0.0,-999.0,68,-99.99,,,0.00,weatherlink.com 1.10,2013-09-24 15:45:00,
2013-09-24 11:00:00,66.2,55.0,29.96,ENE,57,0.0,-999.0,67,-99.99,,,0.00,weatherlink.com 1.10,2013-09-24 16:00:00,
2013-09-24 11:16:00,67.4,55.0,29.96,SE,132,5.0,-999.0,64,-99.99,,,0.00,weatherlink.com 1.10,2013-09-24 16:16:00,
2013-09-24 11:31:00,68.4,55.0,29.95,East,101,0.0,-999.0,62,-99.99,,,0.00,weatherlink.com 1.10,2013-09-24 16:31:00,
2013-09-24 11:46:00,69.5,54.0,29.94,ENE,67,3.0,-999.0,59,-99.99,,,0.00,weatherlink.com 1.10,2013-09-24 16:46:00,
2013-09-24 12:01:00,70.1,54.0,29.93,SE,144,0.0,-999.0,58,-99.99,,,0.00,weatherlink.com 1.10,2013-09-24 17:01:00,
2013-09-24 12:16:00,70.9,54.0,29.93,ESE,123,8.0,-999.0,56,-99.99,,,0.00,weatherlink.com 1.10,2013-09-24 17:16:00,
2013-09-24 12:31:00,71.4,54.0,29.93,East,101,0.0,-999.0,55,-99.99,,,0.00,weatherlink.com 1.10,2013-09-24 17:31:00,
2013-09-24 12:46:00,71.8,55.0,29.93,SE,136,6.0,-999.0,55,-99.99,,,0.00,weatherlink.com 1.10,2013-09-24 17:46:00,
2013-09-24 13:01:00,71.7,54.0,29.92,SE,133,4.0,-999.0,54,-99.99,,,0.00,weatherlink.com 1.10,2013-09-24 18:01:00,
2013-09-24 13:16:00,72.3,55.0,29.92,SE,135,9.0,-999.0,54,-99.99,,,0.00,weatherlink.com 1.10,2013-09-24 18:16:00,
2013-09-24 13:31:00,73.2,55.0,29.91,SE,137,3.0,-999.0,54,-99.99,,,0.00,weatherlink.com 1.10,2013-09-24 18:31:00,
2013-09-24 13:46:00,74.2,55.0,29.90,ESE,115,4.0,-999.0,51,-99.99,,,0.00,weatherlink.com 1.10,2013-09-24 18:46:00,
2013-09-24 14:01:00,75.1,56.0,29.89,East,82,0.0,-999.0,52,-99.99,,,0.00,weatherlink.com 1.10,2013-09-24 19:01:00,
2013-09-24 14:16:00,75.3,55.0,29.88,SE,128,0.0,-999.0,50,-99.99,,,0.00,weatherlink.com 1.10,2013-09-24 19:16:00,
2013-09-24 14:31:00,75.6,54.0,29.88,SE,141,4.0,-999.0,48,-99.99,,,0.00,weatherlink.com 1.10,2013-09-24 19:31:00,
2013-09-24 14:46:00,75.4,55.0,29.88,SE,131,13.0,-999.0,50,-99.99,,,0.00,weatherlink.com 1.10,2013-09-24 19:46:00,
2013-09-24 15:01:00,76.0,54.0,29.88,SE,138,9.0,-999.0,46,-99.99,,,0.00,weatherlink.com 1.10,2013-09-24 20:01:00,
2013-09-24 15:16:00,76.5,55.0,29.88,ESE,103,0.0,-999.0,48,-99.99,,,0.00,weatherlink.com 1.10,2013-09-24 20:16:00,
2013-09-24 15:31:00,76.7,54.0,29.87,SE,128,3.0,-999.0,46,-99.99,,,0.00,weatherlink.com 1.10,2013-09-24 20:31:00,
2013-09-24 16:01:00,76.5,54.0,29.85,SSE,160,3.0,-999.0,46,-99.99,,,0.00,weatherlink.com 1.10,2013-09-24 21:01:00,
2013-09-24 16:16:00,76.6,54.0,29.85,ESE,117,9.0,-999.0,46,-99.99,,,0.00,weatherlink.com 1.10,2013-09-24 21:16:00,
2013-09-24 16:31:00,77.0,56.0,29.86,SE,130,1.0,-999.0,48,-99.99,,,0.00,weatherlink.com 1.10,2013-09-24 21:31:00,
2013-09-24 16:46:00,77.1,55.0,29.86,SE,144,0.0,-999.0,46,-99.99,,,0.00,weatherlink.com 1.10,2013-09-24 21:46:00,
2013-09-24 17:01:00,76.9,56.0,29.86,SSE,152,3.0,-999.0,48,-99.99,,,0.00,weatherlink.com 1.10,2013-09-24 22:01:00,
2013-09-24 17:16:00,76.8,56.0,29.86,ESE,115,1.0,-999.0,48,-99.99,,,0.00,weatherlink.com 1.10,2013-09-24 22:16:00,
2013-09-24 17:31:00,76.4,56.0,29.86,SE,132,0.0,-999.0,49,-99.99,,,0.00,weatherlink.com 1.10,2013-09-24 22:31:00,
2013-09-24 17:46:00,75.8,56.0,29.86,SE,132,0.0,-999.0,51,-99.99,,,0.00,weatherlink.com 1.10,2013-09-24 22:46:00,
2013-09-24 18:01:00,74.3,56.0,29.86,SE,134,0.0,-999.0,53,-99.99,,,0.00,weatherlink.com 1.10,2013-09-24 23:01:00,
2013-09-24 18:16:00,73.3,56.0,29.86,East,93,0.0,-999.0,55,-99.99,,,0.00,weatherlink.com 1.10,2013-09-24 23:16:00,
2013-09-24 18:31:00,72.4,55.0,29.86,ENE,69,0.0,-999.0,55,-99.99,,,0.00,weatherlink.com 1.10,2013-09-24 23:31:00,
2013-09-24 18:46:00,71.6,55.0,29.86,ENE,78,0.0,-999.0,57,-99.99,,,0.00,weatherlink.com 1.10,2013-09-24 23:46:00,
2013-09-24 19:02:00,70.7,55.0,29.86,East,88,0.0,-999.0,57,-99.99,,,0.00,weatherlink.com 1.10,2013-09-25 00:02:00,
2013-09-24 19:16:00,69.7,55.0,29.86,NE,40,0.0,-999.0,59,-99.99,,,0.00,weatherlink.com 1.10,2013-09-25 00:16:00,
2013-09-24 19:32:00,68.7,54.0,29.86,NE,44,0.0,-999.0,60,-99.99,,,0.00,weatherlink.com 1.10,2013-09-25 00:32:00,
2013-09-24 19:47:00,67.7,54.0,29.86,NNE,31,0.0,-999.0,61,-99.99,,,0.00,weatherlink.com 1.10,2013-09-25 00:47:00,
2013-09-24 20:02:00,67.3,53.0,29.87,NNE,12,0.0,-999.0,60,-99.99,,,0.00,weatherlink.com 1.10,2013-09-25 01:02:00,
2013-09-24 20:17:00,67.0,52.0,29.87,East,80,0.0,-999.0,60,-99.99,,,0.00,weatherlink.com 1.10,2013-09-25 01:17:00,
2013-09-24 20:32:00,66.3,52.0,29.87,NE,51,0.0,-999.0,61,-99.99,,,0.00,weatherlink.com 1.10,2013-09-25 01:32:00,
2013-09-24 20:47:00,65.4,52.0,29.87,ENE,63,0.0,-999.0,62,-99.99,,,0.00,weatherlink.com 1.10,2013-09-25 01:47:00,
2013-09-24 21:02:00,64.9,51.0,29.87,North,355,0.0,-999.0,62,-99.99,,,0.00,weatherlink.com 1.10,2013-09-25 02:02:00,
2013-09-24 21:17:00,64.5,51.0,29.87,East,79,0.0,-999.0,62,-99.99,,,0.00,weatherlink.com 1.10,2013-09-25 02:17:00,
2013-09-24 21:32:00,64.1,51.0,29.87,NNE,29,0.0,-999.0,62,-99.99,,,0.00,weatherlink.com 1.10,2013-09-25 02:32:00,
2013-09-24 21:47:00,63.7,50.0,29.87,NNE,28,0.0,-999.0,62,-99.99,,,0.00,weatherlink.com 1.10,2013-09-25 02:47:00,
2013-09-24 22:02:00,63.4,50.0,29.87,ESE,113,1.0,-999.0,62,-99.99,,,0.00,weatherlink.com 1.10,2013-09-25 03:02:00,
2013-09-24 22:17:00,63.1,50.0,29.87,ENE,65,0.0,-999.0,63,-99.99,,,0.00,weatherlink.com 1.10,2013-09-25 03:17:00,
2013-09-24 22:32:00,62.8,50.0,29.87,ESE,103,0.0,-999.0,63,-99.99,,,0.00,weatherlink.com 1.10,2013-09-25 03:32:00,
2013-09-24 22:47:00,62.2,50.0,29.87,ENE,66,0.0,-999.0,65,-99.99,,,0.00,weatherlink.com 1.10,2013-09-25 03:47:00,
2013-09-24 23:02:00,61.6,50.0,29.86,ENE,76,0.0,-999.0,66,-99.99,,,0.00,weatherlink.com 1.10,2013-09-25 04:02:00,
2013-09-24 23:17:00,61.2,50.0,29.86,East,98,0.0,-999.0,67,-99.99,,,0.00,weatherlink.com 1.10,2013-09-25 04:17:00,
2013-09-24 23:32:00,60.6,50.0,29.86,NNE,24,0.0,-999.0,68,-99.99,,,0.00,weatherlink.com 1.10,2013-09-25 04:32:00,
2013-09-24 23:47:00,60.1,50.0,29.86,ESE,113,0.0,-999.0,69,-99.99,,,0.00,weatherlink.com 1.10,2013-09-25 04:47:00,